createdAt,value
2018-07-23T00:00:43.420Z,0
2018-07-23T00:01:53.536Z,0
2018-07-23T00:03:03.610Z,0
2018-07-23T00:04:13.423Z,0
2018-07-23T00:05:23.234Z,0
2018-07-23T00:06:33.313Z,0
2018-07-23T00:07:42.614Z,0
2018-07-23T00:08:52.433Z,0
2018-07-23T00:10:02.230Z,0
2018-07-23T00:11:11.764Z,0
2018-07-23T00:12:21.562Z,0
2018-07-23T00:13:31.138Z,0
2018-07-23T00:14:40.652Z,0
2018-07-23T00:15:50.432Z,0
2018-07-23T00:16:59.968Z,0
2018-07-23T00:18:10.053Z,0
2018-07-23T00:19:20.163Z,0
2018-07-23T00:20:30.240Z,0
2018-07-23T00:21:40.295Z,0
2018-07-23T00:22:49.847Z,0
2018-07-23T00:23:59.634Z,0
2018-07-23T00:25:09.491Z,0
2018-07-23T00:26:19.576Z,0
2018-07-23T00:27:29.386Z,0
2018-07-23T00:28:39.175Z,0
2018-07-23T00:29:49.248Z,0
2018-07-23T00:30:59.365Z,0
2018-07-23T00:32:08.888Z,0
2018-07-23T00:33:18.948Z,0
2018-07-23T00:34:28.479Z,0
2018-07-23T00:35:38.279Z,0
2018-07-23T00:36:48.128Z,0
2018-07-23T00:37:58.186Z,0
2018-07-23T00:39:08.257Z,0
2018-07-23T00:40:17.806Z,0
2018-07-23T00:41:27.602Z,0
2018-07-23T00:42:37.180Z,0
2018-07-23T00:43:47.237Z,0
2018-07-23T00:44:57.334Z,0
2018-07-23T00:46:06.868Z,0
2018-07-23T00:47:16.676Z,0
2018-07-23T00:48:26.532Z,0
2018-07-23T00:49:36.598Z,0
2018-07-23T00:50:46.397Z,0
2018-07-23T00:51:56.498Z,0
2018-07-23T00:53:06.316Z,0
2018-07-23T00:54:16.159Z,0
2018-07-23T00:55:26.220Z,0
2018-07-23T00:56:35.746Z,0
2018-07-23T00:57:45.284Z,0
2018-07-23T00:58:54.823Z,0
2018-07-23T01:00:04.403Z,0
2018-07-23T01:01:14.486Z,0
2018-07-23T01:02:24.282Z,0
2018-07-23T01:03:34.090Z,0
2018-07-23T01:04:43.624Z,0
2018-07-23T01:05:53.722Z,0
2018-07-23T01:07:03.811Z,0
2018-07-23T01:08:13.892Z,0
2018-07-23T01:09:23.943Z,0
2018-07-23T01:10:33.998Z,0
2018-07-23T01:11:43.580Z,0
2018-07-23T01:12:53.658Z,0
2018-07-23T01:14:03.772Z,0
2018-07-23T01:15:13.832Z,0
2018-07-23T01:16:23.912Z,0
2018-07-23T01:17:33.495Z,0
2018-07-23T01:18:43.561Z,0
2018-07-23T01:19:53.355Z,0
2018-07-23T01:21:03.144Z,0
2018-07-23T01:22:12.956Z,0
2018-07-23T01:23:23.057Z,4
2018-07-23T01:24:32.863Z,4
2018-07-23T01:25:42.909Z,4
2018-07-23T01:26:52.982Z,4
2018-07-23T01:28:02.519Z,4
2018-07-23T01:29:12.642Z,0
2018-07-23T01:30:22.688Z,0
2018-07-23T01:31:32.481Z,0
2018-07-23T01:32:42.554Z,4
2018-07-23T01:33:52.365Z,4
2018-07-23T01:35:02.194Z,4
2018-07-23T01:36:12.001Z,4
2018-07-23T01:37:22.086Z,4
2018-07-23T01:38:32.174Z,4
2018-07-23T01:39:41.990Z,4
2018-07-23T01:40:51.559Z,8
2018-07-23T01:42:01.620Z,8
2018-07-23T01:43:11.412Z,4
2018-07-23T01:44:21.478Z,8
2018-07-23T01:45:31.554Z,8
2018-07-23T01:46:41.410Z,8
2018-07-23T01:47:50.937Z,8
2018-07-23T01:49:01.007Z,8
2018-07-23T01:50:10.808Z,12
2018-07-23T01:51:20.606Z,12
2018-07-23T01:52:30.742Z,16
2018-07-23T01:53:40.530Z,16
2018-07-23T01:54:50.334Z,16
2018-07-23T01:56:00.415Z,16
2018-07-23T01:57:10.207Z,20
2018-07-23T01:58:20.336Z,20
2018-07-23T01:59:30.166Z,24
2018-07-23T02:00:39.978Z,28
2018-07-23T02:01:49.504Z,28
2018-07-23T02:02:59.295Z,28
2018-07-23T02:04:09.861Z,36
2018-07-23T02:05:19.928Z,36
2018-07-23T02:06:30.006Z,40
2018-07-23T02:07:40.077Z,44
2018-07-23T02:08:50.134Z,48
2018-07-23T02:10:00.240Z,52
2018-07-23T02:11:09.504Z,56
2018-07-23T02:12:19.314Z,64
2018-07-23T02:13:29.390Z,68
2018-07-23T02:14:39.195Z,72
2018-07-23T02:15:49.031Z,80
2018-07-23T02:16:59.103Z,84
2018-07-23T02:18:08.682Z,92
2018-07-23T02:19:18.820Z,100
2018-07-23T02:20:28.615Z,108
2018-07-23T02:21:38.477Z,120
2018-07-23T02:22:48.541Z,128
2018-07-23T02:23:58.346Z,136
2018-07-23T02:25:08.136Z,144
2018-07-23T02:26:17.655Z,152
2018-07-23T02:27:27.757Z,160
2018-07-23T02:28:37.821Z,164
2018-07-23T02:29:47.881Z,176
2018-07-23T02:30:57.683Z,184
2018-07-23T02:32:07.516Z,196
2018-07-23T02:33:16.836Z,208
2018-07-23T02:34:26.898Z,216
2018-07-23T02:35:36.159Z,228
2018-07-23T02:36:45.965Z,236
2018-07-23T02:37:56.049Z,252
2018-07-23T02:39:05.891Z,264
2018-07-23T02:40:15.684Z,276
2018-07-23T02:41:25.516Z,292
2018-07-23T02:42:35.053Z,308
2018-07-23T02:43:45.134Z,324
2018-07-23T02:44:54.984Z,340
2018-07-23T02:46:04.768Z,360
2018-07-23T02:47:14.567Z,380
2018-07-23T02:48:24.380Z,396
2018-07-23T02:49:33.924Z,416
2018-07-23T02:50:43.515Z,436
2018-07-23T02:51:53.313Z,456
2018-07-23T02:53:02.856Z,480
2018-07-23T02:54:12.936Z,496
2018-07-23T02:55:23.012Z,520
2018-07-23T02:56:32.867Z,548
2018-07-23T02:57:42.408Z,572
2018-07-23T02:58:52.212Z,596
2018-07-23T03:00:02.029Z,616
2018-07-23T03:03:45.886Z,696
2018-07-23T03:04:55.954Z,720
2018-07-23T03:06:05.497Z,740
2018-07-23T03:07:15.560Z,764
2018-07-23T03:08:25.368Z,784
2018-07-23T03:09:35.229Z,804
2018-07-23T03:10:45.027Z,828
2018-07-23T03:11:54.812Z,844
2018-07-23T03:13:04.897Z,860
2018-07-23T03:14:14.974Z,876
2018-07-23T03:15:24.853Z,896
2018-07-23T03:16:34.922Z,908
2018-07-23T03:17:44.710Z,936
2018-07-23T03:18:54.524Z,956
2018-07-23T03:20:04.311Z,984
2018-07-23T03:21:13.890Z,1016
2018-07-23T03:22:23.964Z,1060
2018-07-23T03:23:34.052Z,1104
2018-07-23T03:24:44.146Z,1148
2018-07-23T03:25:54.253Z,1184
2018-07-23T03:27:04.100Z,1228
2018-07-23T03:28:13.357Z,1268
2018-07-23T03:29:23.425Z,1304
2018-07-23T03:30:33.506Z,1336
2018-07-23T03:31:43.317Z,1364
2018-07-23T03:32:53.471Z,1396
2018-07-23T03:34:03.010Z,1420
2018-07-23T03:35:13.082Z,1444
2018-07-23T03:36:22.875Z,1468
2018-07-23T03:37:32.961Z,1492
2018-07-23T03:38:42.810Z,1520
2018-07-23T03:39:52.328Z,1548
2018-07-23T03:41:02.385Z,1580
2018-07-23T03:42:11.903Z,1616
2018-07-23T03:43:21.746Z,1660
2018-07-23T03:44:31.630Z,1708
2018-07-23T03:45:41.429Z,1756
2018-07-23T03:46:50.958Z,1800
2018-07-23T03:48:00.748Z,1836
2018-07-23T03:49:10.803Z,1868
2018-07-23T03:50:20.916Z,1892
2018-07-23T03:51:29.892Z,1920
2018-07-23T03:52:39.696Z,1940
2018-07-23T03:53:49.490Z,1956
2018-07-23T03:54:59.036Z,1968
2018-07-23T03:56:09.160Z,1984
2018-07-23T03:57:19.224Z,1992
2018-07-23T03:58:29.311Z,2008
2018-07-23T03:59:39.109Z,2020
2018-07-23T04:00:49.179Z,2036
2018-07-23T04:01:59.283Z,2052
2018-07-23T04:03:09.098Z,2076
2018-07-23T04:04:18.613Z,2096
2018-07-23T04:05:28.402Z,2112
2018-07-23T04:06:38.196Z,2136
2018-07-23T04:07:48.303Z,2164
2018-07-23T04:08:57.830Z,2188
2018-07-23T04:10:07.500Z,2224
2018-07-23T04:11:17.436Z,2256
2018-07-23T04:12:27.512Z,2292
2018-07-23T04:13:37.357Z,2320
2018-07-23T04:14:47.420Z,2356
2018-07-23T04:15:57.223Z,2400
2018-07-23T04:17:07.287Z,2448
2018-07-23T04:18:16.809Z,2496
2018-07-23T04:19:26.956Z,2536
2018-07-23T04:20:37.019Z,2572
2018-07-23T04:21:46.824Z,2600
2018-07-23T04:22:56.894Z,2620
2018-07-23T04:24:06.406Z,2652
2018-07-23T04:25:16.527Z,2696
2018-07-23T04:26:26.327Z,2740
2018-07-23T04:27:36.422Z,2796
2018-07-23T04:28:46.500Z,2904
2018-07-23T04:29:56.035Z,2984
2018-07-23T04:31:05.881Z,3028
2018-07-23T04:32:15.951Z,3024
2018-07-23T04:33:26.009Z,3016
2018-07-23T04:34:35.815Z,3064
2018-07-23T04:35:45.877Z,3076
2018-07-23T04:36:55.717Z,3088
2018-07-23T04:38:05.959Z,3092
2018-07-23T04:39:15.770Z,3096
2018-07-23T04:40:24.755Z,3128
2018-07-23T04:41:34.547Z,3160
2018-07-23T04:42:44.131Z,3224
2018-07-23T04:43:53.942Z,3316
2018-07-23T04:45:03.471Z,3404
2018-07-23T04:46:13.259Z,3464
2018-07-23T04:47:23.322Z,3564
2018-07-23T04:48:33.445Z,3596
2018-07-23T04:49:43.520Z,3616
2018-07-23T04:50:53.597Z,3612
2018-07-23T04:52:03.404Z,3628
2018-07-23T04:53:13.216Z,3616
2018-07-23T04:54:23.081Z,3520
2018-07-23T04:55:32.886Z,3596
2018-07-23T04:56:43.007Z,3588
2018-07-23T04:57:52.976Z,3624
2018-07-23T04:59:03.037Z,3476
2018-07-23T05:00:12.882Z,3436
2018-07-23T05:01:22.401Z,3312
2018-07-23T05:02:32.469Z,3244
2018-07-23T05:03:42.277Z,3252
2018-07-23T05:04:52.077Z,3348
2018-07-23T05:06:01.923Z,3432
2018-07-23T05:07:12.018Z,3372
2018-07-23T05:08:21.815Z,3376
2018-07-23T05:09:31.615Z,3312
2018-07-23T05:10:41.123Z,3464
2018-07-23T05:11:50.969Z,3492
2018-07-23T05:13:00.753Z,3488
2018-07-23T05:14:10.826Z,3560
2018-07-23T05:15:20.903Z,3588
2018-07-23T05:16:30.696Z,3580
2018-07-23T05:17:40.558Z,3536
2018-07-23T05:18:50.356Z,3612
2018-07-23T05:20:00.158Z,3560
2018-07-23T05:21:09.957Z,3560
2018-07-23T05:22:20.028Z,3528
2018-07-23T05:23:29.880Z,3592
2018-07-23T05:24:40.031Z,3592
2018-07-23T05:25:49.827Z,3620
2018-07-23T05:26:59.955Z,3664
2018-07-23T05:28:09.500Z,3772
2018-07-23T05:29:19.348Z,3920
2018-07-23T05:30:28.876Z,4052
2018-07-23T05:31:38.963Z,4212
2018-07-23T05:32:49.100Z,4304
2018-07-23T05:33:59.178Z,4424
2018-07-23T05:35:09.034Z,4456
2018-07-23T05:36:18.551Z,4540
2018-07-23T05:37:28.633Z,4620
2018-07-23T05:38:38.686Z,4764
2018-07-23T05:39:48.909Z,4932
2018-07-23T05:40:58.503Z,4956
2018-07-23T05:42:08.728Z,5028
2018-07-23T05:43:18.252Z,4996
2018-07-23T05:44:28.326Z,4932
2018-07-23T05:45:38.427Z,4904
2018-07-23T05:46:48.271Z,4776
2018-07-23T05:47:58.067Z,4660
2018-07-23T05:49:07.862Z,4560
2018-07-23T05:50:17.930Z,4492
2018-07-23T05:51:28.009Z,4448
2018-07-23T05:52:38.128Z,4352
2018-07-23T05:53:48.217Z,4252
2018-07-23T05:54:58.020Z,4136
2018-07-23T05:56:07.847Z,4048
2018-07-23T05:57:17.116Z,3996
2018-07-23T05:58:27.243Z,4024
2018-07-23T05:59:37.318Z,3988
2018-07-23T06:00:47.130Z,3904
2018-07-23T06:01:56.931Z,3876
2018-07-23T06:03:06.740Z,3816
2018-07-23T06:04:16.859Z,3700
2018-07-23T06:05:26.660Z,3624
2018-07-23T06:06:36.955Z,3572
2018-07-23T06:07:47.166Z,3548
2018-07-23T06:08:56.946Z,3500
2018-07-23T06:10:11.529Z,3452
2018-07-23T06:11:21.598Z,3432
2018-07-23T06:12:31.674Z,3404
2018-07-23T06:13:41.653Z,3416
2018-07-23T06:14:51.725Z,3408
2018-07-23T06:16:01.822Z,3356
2018-07-23T06:17:11.359Z,3360
2018-07-23T06:18:21.434Z,3328
2018-07-23T06:19:31.513Z,3328
2018-07-23T06:20:41.308Z,3304
2018-07-23T06:21:51.423Z,3276
2018-07-23T06:23:01.501Z,3204
2018-07-23T06:24:11.299Z,3128
2018-07-23T06:25:20.548Z,3004
2018-07-23T06:26:30.335Z,2972
2018-07-23T06:27:40.470Z,2908
2018-07-23T06:28:50.527Z,2868
2018-07-23T06:29:59.910Z,2860
2018-07-23T06:31:09.457Z,2900
2018-07-23T06:32:19.427Z,2952
2018-07-23T06:33:29.618Z,2988
2018-07-23T06:34:39.686Z,2992
2018-07-23T06:35:49.496Z,3028
2018-07-23T06:37:13.308Z,3044
2018-07-23T06:38:23.619Z,3060
2018-07-23T06:39:33.951Z,2988
2018-07-23T06:40:43.824Z,2956
2018-07-23T06:41:53.887Z,2988
2018-07-23T06:43:03.962Z,3056
2018-07-23T06:44:14.106Z,3104
2018-07-23T06:45:24.189Z,3104
2018-07-23T06:46:34.391Z,2968
2018-07-23T06:47:44.505Z,2860
2018-07-23T06:48:54.585Z,2724
2018-07-23T06:50:04.730Z,2832
2018-07-23T06:51:14.532Z,2828
2018-07-23T06:52:24.327Z,2844
2018-07-23T06:53:34.397Z,2920
2018-07-23T06:54:44.477Z,2996
2018-07-23T06:55:54.617Z,3164
2018-07-23T06:57:04.713Z,3312
2018-07-23T06:58:14.791Z,3360
2018-07-23T06:59:24.608Z,3356
2018-07-23T07:00:34.040Z,3324
2018-07-23T07:01:44.316Z,3332
2018-07-23T07:02:53.835Z,3332
2018-07-23T07:04:03.636Z,3316
2018-07-23T07:05:13.171Z,3328
2018-07-23T07:06:23.465Z,3336
2018-07-23T07:07:33.112Z,3336
2018-07-23T07:08:42.654Z,3332
2018-07-23T07:09:52.729Z,3332
2018-07-23T07:11:02.657Z,3332
2018-07-23T07:12:12.199Z,3332
2018-07-23T07:13:22.372Z,3340
2018-07-23T07:14:31.403Z,3348
2018-07-23T07:15:41.471Z,3340
2018-07-23T07:16:51.287Z,3352
2018-07-23T07:18:01.377Z,3324
2018-07-23T07:19:11.556Z,3292
2018-07-23T07:20:21.627Z,3372
2018-07-23T07:21:31.442Z,3388
2018-07-23T07:22:41.231Z,3384
2018-07-23T07:23:51.050Z,3392
2018-07-23T07:25:00.899Z,3396
2018-07-23T07:26:10.700Z,3400
2018-07-23T07:27:20.785Z,3404
2018-07-23T07:28:30.585Z,3404
2018-07-23T07:29:40.637Z,3412
2018-07-23T07:30:50.502Z,3416
2018-07-23T07:32:00.566Z,3420
2018-07-23T07:33:10.082Z,3424
2018-07-23T07:34:19.888Z,3428
2018-07-23T07:35:29.676Z,3432
2018-07-23T07:36:39.816Z,3432
2018-07-23T07:37:49.932Z,3436
2018-07-23T07:38:59.775Z,3448
2018-07-23T07:40:09.314Z,3460
2018-07-23T07:41:19.128Z,3476
2018-07-23T07:42:28.712Z,3496
2018-07-23T07:43:38.240Z,3508
2018-07-23T07:44:48.308Z,3516
2018-07-23T07:45:58.115Z,3528
2018-07-23T07:47:07.636Z,3552
2018-07-23T07:48:17.759Z,3564
2018-07-23T07:49:27.285Z,3580
2018-07-23T07:50:37.356Z,3592
2018-07-23T07:51:47.438Z,3600
2018-07-23T07:52:57.239Z,3612
2018-07-23T07:54:06.822Z,3628
2018-07-23T07:55:16.646Z,3684
2018-07-23T07:56:26.746Z,3688
2018-07-23T07:57:36.830Z,3644
2018-07-23T07:58:47.005Z,3660
2018-07-23T07:59:56.922Z,3672
2018-07-23T08:01:06.742Z,3680
2018-07-23T08:02:16.532Z,3692
2018-07-23T08:03:26.623Z,3700
2018-07-23T08:04:36.154Z,3696
2018-07-23T08:05:46.285Z,3692
2018-07-23T08:06:56.102Z,3684
2018-07-23T08:08:05.957Z,3640
2018-07-23T08:09:16.030Z,3588
2018-07-23T08:10:26.093Z,3724
2018-07-23T08:11:36.229Z,3804
2018-07-23T08:12:45.915Z,3852
2018-07-23T08:13:55.448Z,3872
2018-07-23T08:15:05.528Z,3928
2018-07-23T08:16:15.334Z,3948
2018-07-23T08:17:25.478Z,3964
2018-07-23T08:18:34.749Z,3984
2018-07-23T08:19:44.558Z,4008
2018-07-23T08:20:54.666Z,4024
2018-07-23T08:22:04.740Z,4048
2018-07-23T08:23:14.851Z,4036
2018-07-23T08:24:24.393Z,4092
2018-07-23T08:25:34.202Z,3948
2018-07-23T08:26:44.280Z,3952
2018-07-23T08:27:54.600Z,4064
2018-07-23T08:29:04.665Z,4132
2018-07-23T08:30:14.224Z,4248
2018-07-23T08:31:24.044Z,4308
2018-07-23T08:32:34.317Z,4340
2018-07-23T08:33:43.869Z,4392
2018-07-23T08:34:53.725Z,4444
2018-07-23T08:36:03.266Z,4536
2018-07-23T08:37:13.151Z,4576
2018-07-23T08:38:23.007Z,4656
2018-07-23T08:39:32.565Z,4748
2018-07-23T08:40:42.721Z,4836
2018-07-23T08:41:52.257Z,4936
2018-07-23T08:43:01.891Z,5040
2018-07-23T08:44:12.112Z,5148
2018-07-23T08:45:21.910Z,5244
2018-07-23T08:46:31.774Z,5336
2018-07-23T08:47:41.845Z,5412
2018-07-23T08:48:51.910Z,5444
2018-07-23T08:50:01.989Z,5448
2018-07-23T08:51:11.578Z,5524
2018-07-23T08:52:21.786Z,5528
2018-07-23T08:53:31.592Z,5504
2018-07-23T08:54:41.661Z,5376
2018-07-23T08:55:51.178Z,5224
2018-07-23T08:57:01.263Z,5200
2018-07-23T08:58:10.853Z,5268
2018-07-23T08:59:20.944Z,5176
2018-07-23T09:00:31.033Z,5232
2018-07-23T09:01:41.116Z,5240
2018-07-23T09:02:50.907Z,5412
2018-07-23T09:04:00.771Z,5572
2018-07-23T09:05:10.828Z,5568
2018-07-23T09:06:20.370Z,5812
2018-07-23T09:07:30.174Z,5848
2018-07-23T09:08:40.363Z,5804
2018-07-23T09:09:50.422Z,5668
2018-07-23T09:11:00.222Z,5740
2018-07-23T09:12:09.751Z,5564
2018-07-23T09:13:19.825Z,5484
2018-07-23T09:14:29.647Z,5448
2018-07-23T09:15:39.500Z,5488
2018-07-23T09:16:49.050Z,5888
2018-07-23T09:17:58.846Z,5824
2018-07-23T09:19:08.656Z,5864
2018-07-23T09:20:18.755Z,5916
2018-07-23T09:21:28.870Z,6112
2018-07-23T09:22:38.945Z,6260
2018-07-23T09:23:48.971Z,6284
2018-07-23T09:24:58.893Z,6164
2018-07-23T09:26:08.695Z,6548
2018-07-23T09:27:18.828Z,6652
2018-07-23T09:28:28.637Z,6828
2018-07-23T09:29:38.447Z,6912
2018-07-23T09:30:48.243Z,6936
2018-07-23T09:31:58.037Z,6904
2018-07-23T09:33:08.156Z,6732
2018-07-23T09:34:18.246Z,6572
2018-07-23T09:35:28.307Z,6532
2018-07-23T09:36:38.375Z,6564
2018-07-23T09:37:48.177Z,6600
2018-07-23T09:38:58.019Z,6676
2018-07-23T09:40:07.562Z,6784
2018-07-23T09:41:17.359Z,6872
2018-07-23T09:42:27.444Z,6952
2018-07-23T09:43:37.521Z,7056
2018-07-23T09:44:47.367Z,7200
2018-07-23T09:45:57.173Z,7332
2018-07-23T09:47:06.975Z,7472
2018-07-23T09:48:17.067Z,7652
2018-07-23T09:49:26.883Z,7848
2018-07-23T09:50:36.749Z,8096
2018-07-23T09:51:46.877Z,8308
2018-07-23T09:52:56.788Z,8388
2018-07-23T09:54:06.330Z,8472
2018-07-23T09:55:16.403Z,8516
2018-07-23T09:56:25.969Z,8536
2018-07-23T09:57:35.771Z,8672
2018-07-23T09:58:45.609Z,8832
2018-07-23T09:59:55.704Z,9056
2018-07-23T10:01:05.518Z,9304
2018-07-23T10:02:15.358Z,9616
2018-07-23T10:03:25.792Z,9484
2018-07-23T10:04:35.689Z,10036
2018-07-23T10:05:45.236Z,10524
2018-07-23T10:06:55.046Z,10928
2018-07-23T10:08:04.915Z,11000
2018-07-23T10:09:14.713Z,11080
2018-07-23T10:10:24.774Z,11116
2018-07-23T10:11:34.571Z,11496
2018-07-23T10:12:44.106Z,11028
2018-07-23T10:13:53.974Z,12232
2018-07-23T10:15:03.785Z,13028
2018-07-23T10:16:13.872Z,13384
2018-07-23T10:17:23.934Z,13664
2018-07-23T10:18:34.026Z,13760
2018-07-23T10:19:44.154Z,13916
2018-07-23T10:20:53.963Z,13932
2018-07-23T10:22:04.053Z,14100
2018-07-23T10:23:13.926Z,14180
2018-07-23T10:24:23.727Z,14248
2018-07-23T10:25:33.593Z,14476
2018-07-23T10:26:43.406Z,14948
2018-07-23T10:27:53.216Z,15340
2018-07-23T10:29:03.293Z,15456
2018-07-23T10:30:13.367Z,15232
2018-07-23T10:31:23.217Z,15168
2018-07-23T10:32:33.287Z,14960
2018-07-23T10:33:43.368Z,14480
2018-07-23T10:34:52.625Z,14176
2018-07-23T10:36:02.188Z,14128
2018-07-23T10:37:12.053Z,14004
2018-07-23T10:38:21.864Z,13752
2018-07-23T10:39:31.666Z,13328
2018-07-23T10:40:41.755Z,13124
2018-07-23T10:41:51.840Z,12660
2018-07-23T10:43:01.496Z,12172
2018-07-23T10:44:11.300Z,11804
2018-07-23T10:45:21.372Z,11376
2018-07-23T10:46:30.632Z,11272
2018-07-23T10:47:40.177Z,11112
2018-07-23T10:48:50.062Z,11280
2018-07-23T10:50:00.145Z,11968
2018-07-23T10:51:10.139Z,12340
2018-07-23T10:52:20.210Z,12500
2018-07-23T10:53:30.031Z,12616
2018-07-23T10:54:39.883Z,12432
2018-07-23T10:55:49.962Z,13140
2018-07-23T10:56:59.776Z,13552
2018-07-23T10:58:09.879Z,13764
2018-07-23T10:59:19.395Z,13864
2018-07-23T11:00:29.267Z,13768
2018-07-23T11:01:39.087Z,14192
2018-07-23T11:02:49.186Z,14196
2018-07-23T11:03:58.719Z,14476
2018-07-23T11:05:08.251Z,14136
2018-07-23T11:06:18.369Z,14092
2018-07-23T11:07:28.820Z,14276
2018-07-23T11:08:38.637Z,14560
2018-07-23T11:09:48.465Z,15088
2018-07-23T11:10:58.549Z,15144
2018-07-23T11:12:08.695Z,14892
2018-07-23T11:13:18.764Z,15464
2018-07-23T11:14:28.843Z,15752
2018-07-23T11:15:38.648Z,16256
2018-07-23T11:16:48.719Z,16416
2018-07-23T11:17:58.840Z,16448
2018-07-23T11:19:08.133Z,16480
2018-07-23T11:20:18.010Z,17792
2018-07-23T11:21:27.535Z,18400
2018-07-23T11:22:37.351Z,18304
2018-07-23T11:23:47.492Z,18496
2018-07-23T11:24:57.590Z,19040
2018-07-23T11:26:47.536Z,19008
2018-07-23T11:27:57.331Z,18816
2018-07-23T11:29:06.914Z,19136
2018-07-23T11:30:16.714Z,18464
2018-07-23T11:31:26.256Z,18336
2018-07-23T11:32:35.811Z,18176
2018-07-23T11:33:45.894Z,18112
2018-07-23T11:34:56.034Z,18304
2018-07-23T11:36:05.833Z,18016
2018-07-23T11:37:15.635Z,18144
2018-07-23T11:38:25.446Z,18592
2018-07-23T11:39:35.884Z,19872
2018-07-23T11:40:46.008Z,26400
2018-07-23T11:41:55.274Z,34688
2018-07-23T11:43:05.397Z,25504
2018-07-23T11:44:15.474Z,36128
2018-07-23T11:45:25.513Z,35264
2018-07-23T11:46:35.359Z,27520
2018-07-23T11:47:45.440Z,50208
2018-07-23T11:48:54.997Z,42080
2018-07-23T11:50:05.069Z,69696
2018-07-23T11:51:14.885Z,59584
2018-07-23T11:52:25.016Z,78176
2018-07-23T11:53:35.566Z,82816
2018-07-23T11:54:45.817Z,81472
2018-07-23T11:55:55.373Z,84320
2018-07-23T11:57:05.098Z,82016
2018-07-23T11:58:14.362Z,72800
2018-07-23T11:59:24.175Z,75520
2018-07-23T12:00:33.720Z,75520
2018-07-23T12:01:43.947Z,77280
2018-07-23T12:02:53.794Z,80224
2018-07-23T12:04:03.678Z,75296
2018-07-23T12:05:18.121Z,68352
2018-07-23T12:06:27.662Z,76416
2018-07-23T12:07:37.745Z,64032
2018-07-23T12:08:47.844Z,58368
2018-07-23T12:09:57.976Z,48736
2018-07-23T12:11:08.062Z,37152
2018-07-23T12:12:17.889Z,34880
2018-07-23T12:13:27.742Z,31424
2018-07-23T12:14:37.277Z,40224
2018-07-23T12:15:47.407Z,59232
2018-07-23T12:16:57.214Z,63840
2018-07-23T12:18:07.317Z,63360
2018-07-23T12:19:17.418Z,60352
2018-07-23T12:20:27.501Z,48032
2018-07-23T12:21:37.351Z,33408
2018-07-23T12:22:47.433Z,38912
2018-07-23T12:23:57.514Z,59648
2018-07-23T12:25:06.796Z,71648
2018-07-23T12:26:16.611Z,63392
2018-07-23T12:27:26.214Z,63136
2018-07-23T12:28:36.028Z,57248
2018-07-23T12:29:45.856Z,45248
2018-07-23T12:30:55.938Z,59232
2018-07-23T12:32:05.746Z,69856
2018-07-23T12:33:15.635Z,71520
2018-07-23T12:34:25.718Z,66272
2018-07-23T12:35:35.537Z,60224
2018-07-23T12:36:45.611Z,57920
2018-07-23T12:37:55.431Z,63008
2018-07-23T12:39:05.556Z,63872
2018-07-23T12:40:14.831Z,61824
2018-07-23T12:41:24.904Z,55104
2018-07-23T12:42:35.006Z,59712
2018-07-23T12:43:45.091Z,60000
2018-07-23T12:44:58.844Z,61504
2018-07-23T12:46:08.654Z,61376
2018-07-23T12:47:19.067Z,68384
2018-07-23T12:48:28.954Z,64384
2018-07-23T12:49:39.032Z,65728
2018-07-23T12:50:49.191Z,71808
2018-07-23T12:51:58.750Z,64320
2018-07-23T12:53:08.576Z,69600
2018-07-23T12:54:18.661Z,74240
2018-07-23T12:55:28.742Z,81664
2018-07-23T12:56:39.189Z,80128
2018-07-23T12:57:48.746Z,82336
2018-07-23T12:58:58.863Z,83264
2018-07-23T13:00:09.179Z,80512
2018-07-23T13:01:18.207Z,72512
2018-07-23T13:02:28.054Z,68960
2018-07-23T13:03:37.597Z,58368
2018-07-23T13:04:47.681Z,35840
2018-07-23T13:05:57.753Z,30912
2018-07-23T13:07:07.568Z,33120
2018-07-23T13:08:17.577Z,35296
2018-07-23T13:09:27.416Z,52256
2018-07-23T13:10:37.244Z,49376
2018-07-23T13:11:46.266Z,41184
2018-07-23T13:12:56.356Z,37920
2018-07-23T13:14:06.220Z,41248
2018-07-23T13:15:16.297Z,47072
2018-07-23T13:16:26.370Z,52832
2018-07-23T13:17:36.457Z,65824
2018-07-23T13:18:46.263Z,69920
2018-07-23T13:19:56.133Z,75136
2018-07-23T13:21:05.691Z,68736
2018-07-23T13:22:15.773Z,60192
2018-07-23T13:23:25.860Z,54144
2018-07-23T13:24:35.962Z,59968
2018-07-23T13:25:46.023Z,56224
2018-07-23T13:26:55.964Z,43872
2018-07-23T13:28:05.782Z,48928
2018-07-23T13:29:15.884Z,40576
2018-07-23T13:30:25.969Z,32864
2018-07-23T13:31:35.844Z,28352
2018-07-23T13:32:45.662Z,26848
2018-07-23T13:33:55.201Z,28480
2018-07-23T13:35:04.753Z,29760
2018-07-23T13:36:14.576Z,27808
2018-07-23T13:37:24.166Z,28480
2018-07-23T13:38:33.729Z,26176
2018-07-23T13:39:43.524Z,23648
2018-07-23T13:40:53.351Z,22976
2018-07-23T13:42:02.634Z,22880
2018-07-23T13:43:12.511Z,27840
2018-07-23T13:44:22.596Z,35648
2018-07-23T13:45:32.150Z,36960
2018-07-23T13:46:42.208Z,40416
2018-07-23T13:47:52.024Z,36448
2018-07-23T13:49:01.891Z,36128
2018-07-23T13:50:11.447Z,35936
2018-07-23T13:51:20.987Z,32512
2018-07-23T13:52:30.793Z,31392
2018-07-23T13:53:40.872Z,31264
2018-07-23T13:54:50.993Z,32320
2018-07-23T13:56:00.536Z,41920
2018-07-23T13:57:10.086Z,31232
2018-07-23T13:58:19.357Z,35776
2018-07-23T13:59:28.903Z,37760
2018-07-23T14:00:38.217Z,36416
2018-07-23T14:01:48.304Z,44480
2018-07-23T14:02:58.375Z,57536
2018-07-23T14:04:07.642Z,55488
2018-07-23T14:05:17.739Z,63712
2018-07-23T14:06:27.782Z,74976
2018-07-23T14:07:37.710Z,74816
2018-07-23T14:08:47.528Z,74976
2018-07-23T14:09:57.618Z,73280
2018-07-23T14:11:07.447Z,81344
2018-07-23T14:12:17.312Z,64704
2018-07-23T14:13:27.414Z,71456
2018-07-23T14:14:37.486Z,65920
2018-07-23T14:15:47.566Z,62080
2018-07-23T14:16:57.374Z,57024
2018-07-23T14:18:06.966Z,33280
2018-07-23T14:19:17.054Z,36544
2018-07-23T14:20:27.138Z,30016
2018-07-23T14:21:37.340Z,23616
2018-07-23T14:22:47.431Z,26656
2018-07-23T14:23:57.585Z,21504
2018-07-23T14:25:07.665Z,20608
2018-07-23T14:26:17.488Z,23488
2018-07-23T14:27:27.590Z,24256
2018-07-23T14:28:37.677Z,23008
2018-07-23T14:29:47.812Z,26464
2018-07-23T14:30:57.368Z,32512
2018-07-23T14:32:06.920Z,38432
2018-07-23T14:33:16.984Z,44800
2018-07-23T14:34:27.058Z,32640
2018-07-23T14:35:36.911Z,22528
2018-07-23T14:36:46.707Z,22464
2018-07-23T14:37:56.784Z,47392
2018-07-23T14:39:06.327Z,52480
2018-07-23T14:40:16.421Z,48256
2018-07-23T14:41:26.553Z,50528
2018-07-23T14:42:36.388Z,57280
2018-07-23T14:43:46.468Z,65792
2018-07-23T14:44:56.346Z,69344
2018-07-23T14:46:06.143Z,76064
2018-07-23T14:47:16.258Z,80224
2018-07-23T14:48:25.789Z,55488
2018-07-23T14:49:35.921Z,52416
2018-07-23T14:50:46.027Z,41760
2018-07-23T14:51:55.844Z,30880
2018-07-23T14:53:05.707Z,38944
2018-07-23T14:54:15.794Z,62368
2018-07-23T14:55:25.608Z,61664
2018-07-23T14:56:35.697Z,59968
2018-07-23T14:57:46.010Z,60000
2018-07-23T14:58:56.249Z,59616
2018-07-23T15:00:06.063Z,60416
2018-07-23T15:01:16.152Z,70336
2018-07-23T15:02:25.963Z,76320
2018-07-23T15:03:35.638Z,75712
2018-07-23T15:04:45.224Z,75680
2018-07-23T15:05:55.042Z,76480
2018-07-23T15:07:04.873Z,70752
2018-07-23T15:08:14.986Z,77248
2018-07-23T15:09:24.521Z,82976
2018-07-23T15:10:34.670Z,80864
2018-07-23T15:11:44.207Z,81472
2018-07-23T15:12:54.286Z,81984
2018-07-23T15:14:03.837Z,86240
2018-07-23T15:15:13.929Z,88032
2018-07-23T15:16:24.060Z,85696
2018-07-23T15:17:33.942Z,84896
2018-07-23T15:18:43.766Z,79168
2018-07-23T15:19:53.593Z,89728
2018-07-23T15:21:03.414Z,89312
2018-07-23T15:22:13.424Z,84096
2018-07-23T15:23:23.525Z,82624
2018-07-23T15:24:33.607Z,83616
2018-07-23T15:25:43.709Z,86944
2018-07-23T15:26:53.271Z,88352
2018-07-23T15:28:03.131Z,87296
2018-07-23T15:29:13.232Z,89248
2018-07-23T15:30:23.052Z,88928
2018-07-23T15:31:32.605Z,86656
2018-07-23T15:32:42.715Z,85472
2018-07-23T15:33:52.859Z,84608
2018-07-23T15:35:02.694Z,84384
2018-07-23T15:36:12.503Z,85600
2018-07-23T15:37:22.598Z,83072